sensor_id;sensor_type;location;lat;lon;timestamp;pressure;altitude;pressure_sealevel;temperature;humidity
64683;BME280;51107;47.652;19.016;2024-03-02T00:00:55;99291.31;;;8.69;100.00
64683;BME280;51107;47.652;19.016;2024-03-02T00:03:23;99298.44;;;8.67;100.00
64683;BME280;51107;47.652;19.016;2024-03-02T00:05:52;99289.03;;;8.66;100.00
64683;BME280;51107;47.652;19.016;2024-03-02T00:08:24;99276.72;;;8.68;100.00
64683;BME280;51107;47.652;19.016;2024-03-02T00:10:58;99288.06;;;8.67;100.00
64683;BME280;51107;47.652;19.016;2024-03-02T00:13:26;99289.19;;;8.64;100.00
64683;BME280;51107;47.652;19.016;2024-03-02T00:15:56;99296.31;;;8.62;100.00
64683;BME280;51107;47.652;19.016;2024-03-02T00:18:32;99293.03;;;8.60;100.00
64683;BME280;51107;47.652;19.016;2024-03-02T00:21:01;99299.66;;;8.55;100.00
64683;BME280;51107;47.652;19.016;2024-03-02T00:23:33;99303.19;;;8.54;100.00
64683;BME280;51107;47.652;19.016;2024-03-02T00:26:03;99286.97;;;8.52;100.00
64683;BME280;51107;47.652;19.016;2024-03-02T00:28:33;99299.41;;;8.48;100.00
64683;BME280;51107;47.652;19.016;2024-03-02T00:31:09;99291.38;;;8.41;100.00
64683;BME280;51107;47.652;19.016;2024-03-02T00:33:42;99294.28;;;8.38;100.00
64683;BME280;51107;47.652;19.016;2024-03-02T00:36:15;99289.81;;;8.30;100.00
64683;BME280;51107;47.652;19.016;2024-03-02T00:38:47;99282.03;;;8.30;100.00
64683;BME280;51107;47.652;19.016;2024-03-02T00:41:24;99282.84;;;8.31;100.00
64683;BME280;51107;47.652;19.016;2024-03-02T00:44:19;99285.59;;;8.29;100.00
64683;BME280;51107;47.652;19.016;2024-03-02T00:46:50;99280.41;;;8.29;100.00
64683;BME280;51107;47.652;19.016;2024-03-02T00:49:21;99277.00;;;8.29;100.00
64683;BME280;51107;47.652;19.016;2024-03-02T00:51:51;99284.63;;;8.30;100.00
64683;BME280;51107;47.652;19.016;2024-03-02T00:54:22;99284.78;;;8.29;100.00
64683;BME280;51107;47.652;19.016;2024-03-02T00:56:53;99285.37;;;8.23;100.00
64683;BME280;51107;47.652;19.016;2024-03-02T00:59:23;99280.25;;;8.13;100.00
64683;BME280;51107;47.652;19.016;2024-03-02T01:01:52;99291.75;;;8.10;100.00
64683;BME280;51107;47.652;19.016;2024-03-02T01:04:20;99294.34;;;8.10;100.00
64683;BME280;51107;47.652;19.016;2024-03-02T01:06:48;99302.41;;;8.07;100.00
64683;BME280;51107;47.652;19.016;2024-03-02T01:09:17;99299.81;;;8.07;100.00
64683;BME280;51107;47.652;19.016;2024-03-02T01:11:46;99295.59;;;8.06;100.00
64683;BME280;51107;47.652;19.016;2024-03-02T01:14:14;99294.75;;;8.06;100.00
64683;BME280;51107;47.652;19.016;2024-03-02T01:16:42;99298.97;;;8.07;100.00
64683;BME280;51107;47.652;19.016;2024-03-02T01:19:10;99301.44;;;8.08;100.00
64683;BME280;51107;47.652;19.016;2024-03-02T01:21:39;99292.16;;;8.06;100.00
64683;BME280;51107;47.652;19.016;2024-03-02T01:24:07;99296.53;;;8.05;100.00
64683;BME280;51107;47.652;19.016;2024-03-02T01:26:35;99298.47;;;8.03;100.00
64683;BME280;51107;47.652;19.016;2024-03-02T01:29:03;99287.34;;;8.11;100.00
64683;BME280;51107;47.652;19.016;2024-03-02T01:31:31;99278.69;;;8.20;100.00
64683;BME280;51107;47.652;19.016;2024-03-02T01:33:59;99273.97;;;8.15;100.00
64683;BME280;51107;47.652;19.016;2024-03-02T01:36:27;99268.78;;;8.15;100.00
64683;BME280;51107;47.652;19.016;2024-03-02T01:38:55;99260.38;;;8.22;100.00
64683;BME280;51107;47.652;19.016;2024-03-02T01:41:23;99261.41;;;8.29;100.00
64683;BME280;51107;47.652;19.016;2024-03-02T01:43:52;99257.78;;;8.22;100.00
64683;BME280;51107;47.652;19.016;2024-03-02T01:46:20;99252.53;;;8.31;100.00
64683;BME280;51107;47.652;19.016;2024-03-02T01:48:48;99248.13;;;8.14;100.00
64683;BME280;51107;47.652;19.016;2024-03-02T01:51:16;99242.16;;;8.13;100.00
64683;BME280;51107;47.652;19.016;2024-03-02T01:53:44;99243.25;;;8.29;100.00
64683;BME280;51107;47.652;19.016;2024-03-02T01:56:12;99248.75;;;8.26;100.00
64683;BME280;51107;47.652;19.016;2024-03-02T01:58:41;99227.75;;;8.19;100.00
64683;BME280;51107;47.652;19.016;2024-03-02T02:01:09;99233.31;;;8.24;100.00
64683;BME280;51107;47.652;19.016;2024-03-02T02:03:38;99228.28;;;8.23;100.00
64683;BME280;51107;47.652;19.016;2024-03-02T02:06:07;99231.25;;;8.28;100.00
64683;BME280;51107;47.652;19.016;2024-03-02T02:08:37;99241.13;;;8.24;100.00
64683;BME280;51107;47.652;19.016;2024-03-02T02:11:06;99239.47;;;8.23;100.00
64683;BME280;51107;47.652;19.016;2024-03-02T02:13:34;99247.19;;;8.15;100.00
64683;BME280;51107;47.652;19.016;2024-03-02T02:16:06;99247.34;;;8.13;100.00
64683;BME280;51107;47.652;19.016;2024-03-02T02:18:35;99254.31;;;8.13;100.00
64683;BME280;51107;47.652;19.016;2024-03-02T02:21:04;99252.81;;;8.10;100.00
64683;BME280;51107;47.652;19.016;2024-03-02T02:23:32;99261.56;;;8.09;100.00
64683;BME280;51107;47.652;19.016;2024-03-02T02:26:00;99269.50;;;8.08;100.00
64683;BME280;51107;47.652;19.016;2024-03-02T02:28:29;99259.78;;;8.10;100.00
64683;BME280;51107;47.652;19.016;2024-03-02T02:30:57;99265.94;;;8.09;100.00
64683;BME280;51107;47.652;19.016;2024-03-02T02:33:28;99273.88;;;8.07;100.00
64683;BME280;51107;47.652;19.016;2024-03-02T02:35:56;99271.94;;;8.09;100.00
64683;BME280;51107;47.652;19.016;2024-03-02T02:38:24;99283.28;;;8.08;100.00
64683;BME280;51107;47.652;19.016;2024-03-02T02:40:53;99275.50;;;8.08;100.00
64683;BME280;51107;47.652;19.016;2024-03-02T02:43:21;99272.91;;;8.08;100.00
64683;BME280;51107;47.652;19.016;2024-03-02T02:45:49;99268.81;;;8.06;100.00
64683;BME280;51107;47.652;19.016;2024-03-02T02:48:17;99269.34;;;8.09;100.00
64683;BME280;51107;47.652;19.016;2024-03-02T02:50:45;99279.06;;;8.07;100.00
64683;BME280;51107;47.652;19.016;2024-03-02T02:53:13;99268.00;;;8.05;100.00
64683;BME280;51107;47.652;19.016;2024-03-02T02:55:42;99267.34;;;8.03;100.00
64683;BME280;51107;47.652;19.016;2024-03-02T02:58:11;99264.47;;;8.06;100.00
64683;BME280;51107;47.652;19.016;2024-03-02T03:00:40;99267.19;;;8.05;100.00
64683;BME280;51107;47.652;19.016;2024-03-02T03:03:08;99259.19;;;7.98;100.00
64683;BME280;51107;47.652;19.016;2024-03-02T03:05:36;99263.78;;;8.04;100.00
64683;BME280;51107;47.652;19.016;2024-03-02T03:08:04;99270.22;;;8.00;100.00
64683;BME280;51107;47.652;19.016;2024-03-02T03:10:32;99264.53;;;7.96;100.00
64683;BME280;51107;47.652;19.016;2024-03-02T03:13:01;99272.31;;;7.96;100.00
64683;BME280;51107;47.652;19.016;2024-03-02T03:15:29;99284.16;;;7.99;100.00
64683;BME280;51107;47.652;19.016;2024-03-02T03:17:57;99285.28;;;7.96;100.00
64683;BME280;51107;47.652;19.016;2024-03-02T03:20:25;99288.28;;;7.92;100.00
64683;BME280;51107;47.652;19.016;2024-03-02T03:22:53;99272.44;;;7.95;100.00
64683;BME280;51107;47.652;19.016;2024-03-02T03:25:21;99277.91;;;7.92;100.00
64683;BME280;51107;47.652;19.016;2024-03-02T03:27:50;99268.53;;;7.91;100.00
64683;BME280;51107;47.652;19.016;2024-03-02T03:30:20;99263.25;;;7.82;100.00
64683;BME280;51107;47.652;19.016;2024-03-02T03:32:48;99279.38;;;7.76;100.00
64683;BME280;51107;47.652;19.016;2024-03-02T03:35:16;99270.63;;;7.77;100.00
64683;BME280;51107;47.652;19.016;2024-03-02T03:37:46;99269.69;;;7.78;100.00
64683;BME280;51107;47.652;19.016;2024-03-02T03:40:14;99281.97;;;7.76;100.00
64683;BME280;51107;47.652;19.016;2024-03-02T03:42:42;99275.44;;;7.72;100.00
64683;BME280;51107;47.652;19.016;2024-03-02T03:45:10;99286.19;;;7.77;100.00
64683;BME280;51107;47.652;19.016;2024-03-02T03:47:39;99281.81;;;7.78;100.00
64683;BME280;51107;47.652;19.016;2024-03-02T03:50:07;99281.00;;;7.77;100.00
64683;BME280;51107;47.652;19.016;2024-03-02T03:52:35;99278.84;;;7.73;100.00
64683;BME280;51107;47.652;19.016;2024-03-02T03:55:04;99279.66;;;7.73;100.00
64683;BME280;51107;47.652;19.016;2024-03-02T03:57:33;99281.66;;;7.79;100.00
64683;BME280;51107;47.652;19.016;2024-03-02T04:00:03;99279.84;;;7.90;100.00
64683;BME280;51107;47.652;19.016;2024-03-02T04:02:39;99283.41;;;7.89;100.00
64683;BME280;51107;47.652;19.016;2024-03-02T04:05:07;99287.94;;;7.87;100.00
64683;BME280;51107;47.652;19.016;2024-03-02T04:07:39;99290.66;;;7.85;100.00
64683;BME280;51107;47.652;19.016;2024-03-02T04:10:11;99298.44;;;7.85;100.00
64683;BME280;51107;47.652;19.016;2024-03-02T04:12:40;99304.44;;;7.86;100.00
64683;BME280;51107;47.652;19.016;2024-03-02T04:15:08;99295.56;;;7.88;100.00
64683;BME280;51107;47.652;19.016;2024-03-02T04:17:36;99294.44;;;7.91;100.00
64683;BME280;51107;47.652;19.016;2024-03-02T04:20:05;99303.19;;;7.90;100.00
64683;BME280;51107;47.652;19.016;2024-03-02T04:22:34;99311.78;;;7.90;100.00
64683;BME280;51107;47.652;19.016;2024-03-02T04:25:03;99305.78;;;7.90;100.00
64683;BME280;51107;47.652;19.016;2024-03-02T04:27:32;99319.84;;;7.87;100.00
64683;BME280;51107;47.652;19.016;2024-03-02T04:30:01;99316.72;;;7.83;100.00
64683;BME280;51107;47.652;19.016;2024-03-02T04:32:30;99311.31;;;8.05;100.00
64683;BME280;51107;47.652;19.016;2024-03-02T04:34:59;99308.66;;;8.14;100.00
64683;BME280;51107;47.652;19.016;2024-03-02T04:37:27;99307.31;;;8.10;100.00
64683;BME280;51107;47.652;19.016;2024-03-02T04:39:55;99316.16;;;7.90;100.00
64683;BME280;51107;47.652;19.016;2024-03-02T04:42:23;99313.84;;;7.87;100.00
64683;BME280;51107;47.652;19.016;2024-03-02T04:44:52;99316.31;;;7.88;100.00
64683;BME280;51107;47.652;19.016;2024-03-02T04:47:21;99318.06;;;7.88;100.00
64683;BME280;51107;47.652;19.016;2024-03-02T04:49:49;99320.69;;;7.78;100.00
64683;BME280;51107;47.652;19.016;2024-03-02T04:52:16;99317.25;;;7.87;100.00
64683;BME280;51107;47.652;19.016;2024-03-02T04:54:45;99324.63;;;7.82;100.00
64683;BME280;51107;47.652;19.016;2024-03-02T04:57:32;99324.78;;;7.80;100.00
64683;BME280;51107;47.652;19.016;2024-03-02T05:00:00;99324.13;;;7.78;100.00
64683;BME280;51107;47.652;19.016;2024-03-02T05:02:28;99313.91;;;7.77;100.00
64683;BME280;51107;47.652;19.016;2024-03-02T05:04:57;99325.09;;;7.77;100.00
64683;BME280;51107;47.652;19.016;2024-03-02T05:07:25;99323.84;;;7.81;100.00
64683;BME280;51107;47.652;19.016;2024-03-02T05:09:53;99320.94;;;7.85;100.00
64683;BME280;51107;47.652;19.016;2024-03-02T05:12:21;99322.59;;;7.86;100.00
64683;BME280;51107;47.652;19.016;2024-03-02T05:15:16;99324.94;;;7.79;100.00
64683;BME280;51107;47.652;19.016;2024-03-02T05:17:44;99323.84;;;7.81;100.00
64683;BME280;51107;47.652;19.016;2024-03-02T05:20:12;99324.09;;;7.88;100.00
64683;BME280;51107;47.652;19.016;2024-03-02T05:22:41;99323.03;;;7.81;100.00
64683;BME280;51107;47.652;19.016;2024-03-02T05:25:09;99327.38;;;7.80;100.00
64683;BME280;51107;47.652;19.016;2024-03-02T05:27:40;99326.72;;;7.78;100.00
64683;BME280;51107;47.652;19.016;2024-03-02T05:30:09;99331.75;;;7.80;100.00
64683;BME280;51107;47.652;19.016;2024-03-02T05:32:39;99320.84;;;7.76;100.00
64683;BME280;51107;47.652;19.016;2024-03-02T05:35:07;99328.78;;;7.75;100.00
64683;BME280;51107;47.652;19.016;2024-03-02T05:37:36;99326.31;;;7.73;100.00
64683;BME280;51107;47.652;19.016;2024-03-02T05:40:04;99334.09;;;7.73;100.00
64683;BME280;51107;47.652;19.016;2024-03-02T05:42:34;99334.09;;;7.73;100.00
64683;BME280;51107;47.652;19.016;2024-03-02T05:45:02;99336.69;;;7.73;100.00
64683;BME280;51107;47.652;19.016;2024-03-02T05:47:30;99324.69;;;7.72;100.00
64683;BME280;51107;47.652;19.016;2024-03-02T05:49:58;99333.41;;;7.71;100.00
64683;BME280;51107;47.652;19.016;2024-03-02T05:52:27;99320.47;;;7.71;100.00
64683;BME280;51107;47.652;19.016;2024-03-02T05:54:55;99326.31;;;7.73;100.00
64683;BME280;51107;47.652;19.016;2024-03-02T05:57:23;99324.69;;;7.72;100.00
64683;BME280;51107;47.652;19.016;2024-03-02T06:00:16;99320.34;;;7.73;100.00
64683;BME280;51107;47.652;19.016;2024-03-02T06:02:45;99322.09;;;7.72;100.00
64683;BME280;51107;47.652;19.016;2024-03-02T06:05:14;99312.94;;;7.78;100.00
64683;BME280;51107;47.652;19.016;2024-03-02T06:07:43;99320.34;;;7.73;100.00
64683;BME280;51107;47.652;19.016;2024-03-02T06:10:11;99332.63;;;7.71;100.00
64683;BME280;51107;47.652;19.016;2024-03-02T06:12:41;99350.50;;;7.64;100.00
64683;BME280;51107;47.652;19.016;2024-03-02T06:15:10;99354.59;;;7.67;100.00
64683;BME280;51107;47.652;19.016;2024-03-02T06:17:39;99359.94;;;7.65;100.00
64683;BME280;51107;47.652;19.016;2024-03-02T06:20:07;99353.66;;;7.68;100.00
64683;BME280;51107;47.652;19.016;2024-03-02T06:22:38;99360.31;;;7.70;100.00
64683;BME280;51107;47.652;19.016;2024-03-02T06:25:07;99369.88;;;7.70;100.00
64683;BME280;51107;47.652;19.016;2024-03-02T06:27:35;99367.13;;;7.71;100.00
64683;BME280;51107;47.652;19.016;2024-03-02T06:30:04;99370.56;;;7.72;100.00
64683;BME280;51107;47.652;19.016;2024-03-02T06:32:33;99361.13;;;7.71;100.00
64683;BME280;51107;47.652;19.016;2024-03-02T06:35:01;99369.44;;;7.74;100.00
64683;BME280;51107;47.652;19.016;2024-03-02T06:37:29;99372.84;;;7.75;100.00
64683;BME280;51107;47.652;19.016;2024-03-02T06:39:58;99371.91;;;7.76;100.00
64683;BME280;51107;47.652;19.016;2024-03-02T06:42:26;99367.53;;;7.76;100.00
64683;BME280;51107;47.652;19.016;2024-03-02T06:44:54;99372.41;;;7.79;100.00
64683;BME280;51107;47.652;19.016;2024-03-02T06:47:24;99370.50;;;7.81;100.00
64683;BME280;51107;47.652;19.016;2024-03-02T06:49:52;99382.53;;;7.82;100.00
64683;BME280;51107;47.652;19.016;2024-03-02T06:52:21;99382.38;;;7.84;100.00
64683;BME280;51107;47.652;19.016;2024-03-02T06:54:52;99375.13;;;7.88;100.00
64683;BME280;51107;47.652;19.016;2024-03-02T06:57:20;99381.13;;;7.88;100.00
64683;BME280;51107;47.652;19.016;2024-03-02T06:59:49;99375.66;;;7.91;100.00
64683;BME280;51107;47.652;19.016;2024-03-02T07:02:19;99370.47;;;7.91;100.00
64683;BME280;51107;47.652;19.016;2024-03-02T07:04:47;99380.69;;;7.93;100.00
64683;BME280;51107;47.652;19.016;2024-03-02T07:07:16;99373.59;;;7.95;100.00
64683;BME280;51107;47.652;19.016;2024-03-02T07:09:44;99372.62;;;7.96;100.00
64683;BME280;51107;47.652;19.016;2024-03-02T07:12:13;99379.06;;;7.92;100.00
64683;BME280;51107;47.652;19.016;2024-03-02T07:14:41;99374.41;;;7.95;100.00
64683;BME280;51107;47.652;19.016;2024-03-02T07:17:28;99371.66;;;7.97;100.00
64683;BME280;51107;47.652;19.016;2024-03-02T07:19:56;99378.91;;;8.03;100.00
64683;BME280;51107;47.652;19.016;2024-03-02T07:22:24;99380.50;;;8.04;100.00
64683;BME280;51107;47.652;19.016;2024-03-02T07:24:53;99382.94;;;8.06;100.00
64683;BME280;51107;47.652;19.016;2024-03-02T07:27:21;99386.69;;;8.03;100.00
64683;BME280;51107;47.652;19.016;2024-03-02T07:29:49;99384.88;;;8.04;100.00
64683;BME280;51107;47.652;19.016;2024-03-02T07:32:17;99388.84;;;8.08;100.00
64683;BME280;51107;47.652;19.016;2024-03-02T07:34:45;99392.53;;;8.05;100.00
64683;BME280;51107;47.652;19.016;2024-03-02T07:37:13;99381.03;;;8.08;100.00
64683;BME280;51107;47.652;19.016;2024-03-02T07:39:41;99380.75;;;8.11;100.00
64683;BME280;51107;47.652;19.016;2024-03-02T07:42:10;99380.44;;;8.14;100.00
64683;BME280;51107;47.652;19.016;2024-03-02T07:44:38;99390.56;;;8.17;100.00
64683;BME280;51107;47.652;19.016;2024-03-02T07:47:09;99389.16;;;8.23;100.00
64683;BME280;51107;47.652;19.016;2024-03-02T07:49:37;99390.94;;;8.22;100.00
64683;BME280;51107;47.652;19.016;2024-03-02T07:52:05;99394.50;;;8.21;100.00
64683;BME280;51107;47.652;19.016;2024-03-02T07:54:34;99395.31;;;8.22;100.00
64683;BME280;51107;47.652;19.016;2024-03-02T07:57:02;99394.34;;;8.23;100.00
64683;BME280;51107;47.652;19.016;2024-03-02T07:59:30;99389.69;;;8.26;100.00
64683;BME280;51107;47.652;19.016;2024-03-02T08:01:58;99391.47;;;8.26;100.00
64683;BME280;51107;47.652;19.016;2024-03-02T08:04:31;99401.69;;;8.27;100.00
64683;BME280;51107;47.652;19.016;2024-03-02T08:06:59;99402.16;;;8.23;100.00
64683;BME280;51107;47.652;19.016;2024-03-02T08:09:28;99402.94;;;8.23;100.00
64683;BME280;51107;47.652;19.016;2024-03-02T08:11:56;99406.66;;;8.21;100.00
64683;BME280;51107;47.652;19.016;2024-03-02T08:14:26;99406.50;;;8.22;100.00
64683;BME280;51107;47.652;19.016;2024-03-02T08:16:54;99406.22;;;8.25;100.00
64683;BME280;51107;47.652;19.016;2024-03-02T08:19:22;99407.34;;;8.23;100.00
64683;BME280;51107;47.652;19.016;2024-03-02T08:21:51;99412.53;;;8.23;100.00
64683;BME280;51107;47.652;19.016;2024-03-02T08:24:19;99406.66;;;8.21;100.00
64683;BME280;51107;47.652;19.016;2024-03-02T08:26:47;99406.66;;;8.21;100.00
64683;BME280;51107;47.652;19.016;2024-03-02T08:29:15;99412.66;;;8.21;100.00
64683;BME280;51107;47.652;19.016;2024-03-02T08:31:43;99407.19;;;8.24;100.00
64683;BME280;51107;47.652;19.016;2024-03-02T08:34:12;99411.69;;;8.22;100.00
64683;BME280;51107;47.652;19.016;2024-03-02T08:36:40;99414.28;;;8.22;100.00
64683;BME280;51107;47.652;19.016;2024-03-02T08:39:08;99402.84;;;8.15;100.00
64683;BME280;51107;47.652;19.016;2024-03-02T08:41:47;99413.78;;;8.19;100.00
64683;BME280;51107;47.652;19.016;2024-03-02T08:44:15;99406.94;;;8.18;100.00
64683;BME280;51107;47.652;19.016;2024-03-02T08:46:43;99402.69;;;8.16;100.00
64683;BME280;51107;47.652;19.016;2024-03-02T08:49:12;99412.94;;;8.18;100.00
64683;BME280;51107;47.652;19.016;2024-03-02T08:51:40;99416.22;;;8.20;100.00
64683;BME280;51107;47.652;19.016;2024-03-02T08:54:09;99407.22;;;8.14;100.00
64683;BME280;51107;47.652;19.016;2024-03-02T08:56:37;99408.88;;;8.15;100.00
64683;BME280;51107;47.652;19.016;2024-03-02T08:59:05;99409.69;;;8.16;100.00
64683;BME280;51107;47.652;19.016;2024-03-02T09:01:33;99402.69;;;8.16;100.00
64683;BME280;51107;47.652;19.016;2024-03-02T09:04:01;99413.78;;;8.19;100.00
64683;BME280;51107;47.652;19.016;2024-03-02T09:06:30;99416.66;;;8.15;100.00
64683;BME280;51107;47.652;19.016;2024-03-02T09:08:58;99411.47;;;8.15;100.00
64683;BME280;51107;47.652;19.016;2024-03-02T09:11:27;99409.53;;;8.18;100.00
64683;BME280;51107;47.652;19.016;2024-03-02T09:13:55;99415.41;;;8.20;100.00
64683;BME280;51107;47.652;19.016;2024-03-02T09:16:24;99414.44;;;8.21;100.00
64683;BME280;51107;47.652;19.016;2024-03-02T09:18:58;99418.00;;;8.20;100.00
64683;BME280;51107;47.652;19.016;2024-03-02T09:21:28;99423.06;;;8.21;100.00
64683;BME280;51107;47.652;19.016;2024-03-02T09:23:58;99417.03;;;8.21;100.00
64683;BME280;51107;47.652;19.016;2024-03-02T09:26:26;99410.06;;;8.21;100.00
64683;BME280;51107;47.652;19.016;2024-03-02T09:28:54;99416.22;;;8.20;100.00
64683;BME280;51107;47.652;19.016;2024-03-02T09:31:22;99416.06;;;8.22;100.00
64683;BME280;51107;47.652;19.016;2024-03-02T09:33:50;99410.06;;;8.21;100.00
64683;BME280;51107;47.652;19.016;2024-03-02T09:36:19;99422.75;;;8.24;100.00
64683;BME280;51107;47.652;19.016;2024-03-02T09:38:48;99422.59;;;8.26;100.00
64683;BME280;51107;47.652;19.016;2024-03-02T09:41:16;99411.28;;;8.27;100.00
64683;BME280;51107;47.652;19.016;2024-03-02T09:43:45;99410.97;;;8.30;100.00
64683;BME280;51107;47.652;19.016;2024-03-02T09:46:13;99423.00;;;8.31;100.00
64683;BME280;51107;47.652;19.016;2024-03-02T09:48:41;99419.56;;;8.30;100.00
64683;BME280;51107;47.652;19.016;2024-03-02T09:51:10;99413.13;;;8.34;100.00
64683;BME280;51107;47.652;19.016;2024-03-02T09:53:39;99416.56;;;8.35;100.00
64683;BME280;51107;47.652;19.016;2024-03-02T09:56:10;99411.88;;;8.39;100.00
64683;BME280;51107;47.652;19.016;2024-03-02T09:58:39;99409.97;;;8.41;100.00
64683;BME280;51107;47.652;19.016;2024-03-02T10:01:07;99412.41;;;8.42;100.00
64683;BME280;51107;47.652;19.016;2024-03-02T10:03:37;99406.56;;;8.40;100.00
64683;BME280;51107;47.652;19.016;2024-03-02T10:06:24;99407.53;;;8.39;100.00
64683;BME280;51107;47.652;19.016;2024-03-02T10:08:54;99407.37;;;8.41;100.00
64683;BME280;51107;47.652;19.016;2024-03-02T10:11:30;99417.59;;;8.42;100.00
64683;BME280;51107;47.652;19.016;2024-03-02T10:14:10;99412.25;;;8.44;100.00
64683;BME280;51107;47.652;19.016;2024-03-02T10:16:42;99405.19;;;8.46;100.00
64683;BME280;51107;47.652;19.016;2024-03-02T10:19:18;99405.63;;;8.31;100.00
64683;BME280;51107;47.652;19.016;2024-03-02T10:21:55;99406.75;;;8.29;100.00
64683;BME280;51107;47.652;19.016;2024-03-02T10:24:27;99408.38;;;8.30;100.00
64683;BME280;51107;47.652;19.016;2024-03-02T10:26:58;99411.50;;;8.33;100.00
64683;BME280;51107;47.652;19.016;2024-03-02T10:29:29;99408.47;;;8.38;100.00
64683;BME280;51107;47.652;19.016;2024-03-02T10:31:57;99415.72;;;8.34;100.00
64683;BME280;51107;47.652;19.016;2024-03-02T10:34:27;99413.00;;;8.36;100.00
64683;BME280;51107;47.652;19.016;2024-03-02T10:36:54;99411.06;;;8.38;100.00
64683;BME280;51107;47.652;19.016;2024-03-02T10:39:24;99407.53;;;8.39;100.00
64683;BME280;51107;47.652;19.016;2024-03-02T10:41:52;99402.72;;;8.44;100.00
64683;BME280;51107;47.652;19.016;2024-03-02T10:44:22;99411.47;;;8.43;100.00
64683;BME280;51107;47.652;19.016;2024-03-02T10:46:51;99410.12;;;8.39;100.00
64683;BME280;51107;47.652;19.016;2024-03-02T10:49:20;99405.72;;;8.40;100.00
64683;BME280;51107;47.652;19.016;2024-03-02T10:51:50;99408.19;;;8.41;100.00
64683;BME280;51107;47.652;19.016;2024-03-02T10:54:19;99391.00;;;8.40;100.00
64683;BME280;51107;47.652;19.016;2024-03-02T10:56:55;99399.41;;;8.24;100.00
64683;BME280;51107;47.652;19.016;2024-03-02T10:59:28;99398.59;;;8.24;100.00
64683;BME280;51107;47.652;19.016;2024-03-02T11:02:00;99396.38;;;8.29;100.00
64683;BME280;51107;47.652;19.016;2024-03-02T11:04:34;99395.69;;;8.27;100.00
64683;BME280;51107;47.652;19.016;2024-03-02T11:07:08;99400.50;;;8.22;100.00
64683;BME280;51107;47.652;19.016;2024-03-02T11:09:41;99393.09;;;8.27;100.00
64683;BME280;51107;47.652;19.016;2024-03-02T11:12:22;99404.16;;;8.29;100.00
64683;BME280;51107;47.652;19.016;2024-03-02T11:14:51;99398.69;;;8.32;100.00
64683;BME280;51107;47.652;19.016;2024-03-02T11:17:23;99401.13;;;8.33;100.00
64683;BME280;51107;47.652;19.016;2024-03-02T11:19:52;99392.50;;;8.33;100.00
64683;BME280;51107;47.652;19.016;2024-03-02T11:22:21;99396.44;;;8.37;100.00
64683;BME280;51107;47.652;19.016;2024-03-02T11:24:50;99393.19;;;8.35;100.00
64683;BME280;51107;47.652;19.016;2024-03-02T11:33:04;99395.78;;;8.35;100.00
64683;BME280;51107;47.652;19.016;2024-03-02T11:35:37;99392.91;;;8.38;100.00
64683;BME280;51107;47.652;19.016;2024-03-02T11:38:09;99384.00;;;8.41;100.00
64683;BME280;51107;47.652;19.016;2024-03-02T11:40:39;99385.22;;;8.46;100.00
64683;BME280;51107;47.652;19.016;2024-03-02T11:43:09;99382.50;;;8.48;100.00
64683;BME280;51107;47.652;19.016;2024-03-02T11:45:38;99382.34;;;8.49;100.00
64683;BME280;51107;47.652;19.016;2024-03-02T11:48:14;99378.47;;;8.54;100.00
64683;BME280;51107;47.652;19.016;2024-03-02T11:50:53;99372.72;;;8.60;100.00
64683;BME280;51107;47.652;19.016;2024-03-02T11:53:22;99371.72;;;8.61;100.00
64683;BME280;51107;47.652;19.016;2024-03-02T11:55:52;99379.81;;;8.58;100.00
64683;BME280;51107;47.652;19.016;2024-03-02T11:58:22;99379.16;;;8.56;100.00
64683;BME280;51107;47.652;19.016;2024-03-02T12:00:55;99374.78;;;8.56;100.00
64683;BME280;51107;47.652;19.016;2024-03-02T12:03:25;99375.63;;;8.57;100.00
64683;BME280;51107;47.652;19.016;2024-03-02T12:05:54;99372.03;;;8.58;100.00
64683;BME280;51107;47.652;19.016;2024-03-02T12:08:22;99368.63;;;8.57;100.00
64683;BME280;51107;47.652;19.016;2024-03-02T12:10:59;99368.47;;;8.59;100.00
64683;BME280;51107;47.652;19.016;2024-03-02T12:13:29;99380.50;;;8.60;100.00
64683;BME280;51107;47.652;19.016;2024-03-02T12:15:58;99373.53;;;8.60;100.00
64683;BME280;51107;47.652;19.016;2024-03-02T12:18:27;99375.63;;;8.57;100.00
64683;BME280;51107;47.652;19.016;2024-03-02T12:20:55;99368.94;;;8.54;100.00
64683;BME280;51107;47.652;19.016;2024-03-02T12:23:27;99374.13;;;8.54;100.00
64683;BME280;51107;47.652;19.016;2024-03-02T12:25:55;99374.28;;;8.43;100.00
64683;BME280;51107;47.652;19.016;2024-03-02T12:28:24;99368.25;;;8.52;100.00
64683;BME280;51107;47.652;19.016;2024-03-02T12:30:52;99365.88;;;8.59;100.00
64683;BME280;51107;47.652;19.016;2024-03-02T12:33:20;99373.69;;;8.59;100.00
64683;BME280;51107;47.652;19.016;2024-03-02T12:35:49;99371.72;;;8.61;100.00
64683;BME280;51107;47.652;19.016;2024-03-02T12:38:18;99374.22;;;8.62;100.00
64683;BME280;51107;47.652;19.016;2024-03-02T12:40:48;99370.63;;;8.63;100.00
64683;BME280;51107;47.652;19.016;2024-03-02T12:43:17;99381.00;;;8.63;100.00
64683;BME280;51107;47.652;19.016;2024-03-02T12:45:45;99372.25;;;8.64;100.00
64683;BME280;51107;47.652;19.016;2024-03-02T12:48:14;99368.03;;;8.63;100.00
64683;BME280;51107;47.652;19.016;2024-03-02T12:50:42;99366.13;;;8.65;100.00
64683;BME280;51107;47.652;19.016;2024-03-02T12:53:15;99366.13;;;8.65;100.00
64683;BME280;51107;47.652;19.016;2024-03-02T12:55:44;99367.59;;;8.68;100.00
64683;BME280;51107;47.652;19.016;2024-03-02T12:58:19;99370.84;;;8.70;100.00
64683;BME280;51107;47.652;19.016;2024-03-02T13:01:05;99370.19;;;8.68;100.00
64683;BME280;51107;47.652;19.016;2024-03-02T13:03:40;99375.66;;;8.65;100.00
64683;BME280;51107;47.652;19.016;2024-03-02T13:06:09;99363.38;;;8.67;100.00
64683;BME280;51107;47.652;19.016;2024-03-02T13:08:38;99368.56;;;8.67;100.00